AirNav   Duncan Aviation - Near you to keep you flying
 
 511 users online  

NC43 Bear Pen Airport
Supply, North Carolina, USA

GOING TO SUPPLY?


FAA INFORMATION EFFECTIVE 03 NOVEMBER 2022

Location

FAA Identifier: NC43
Lat/Long: 34-07-30.6120N 078-20-17.0090W
34-07.510200N 078-20.283483W
34.1251700,-78.3380581
(estimated)
Elevation: 63 ft. / 19.2 m (surveyed)
Variation: 07W (1985)
From city: 8 miles NW of SUPPLY, NC
Time zone: UTC -5 (UTC -4 during Daylight Saving Time)
Zip code: 28462

Airport Operations

Airport use: Private use. Permission required prior to landing
Control tower: no
ARTCC: WASHINGTON CENTER
FSS: RALEIGH FLIGHT SERVICE STATION
Attendance: IREG
Wind indicator: yes
Segmented circle: no

Airport Communications

WX AWOS-3P at SUT (18 nm SE): 124.175 (910-457-1710)

Nearby radio navigation aids

VOR radial/distance  VOR name  Freq  Var
ILMr246/26.7WILMINGTON VORTAC117.0007W
CREr049/26.8GRAND STRAND VORTAC114.4003W

 
NDB name  Hdg/Dist  Freq  Var  ID
CAMP123/20.622707WCPC -.-. .--. -.-.

Airport Services

Airframe service: NONE
Powerplant service: NONE

Runway Information

Runway 6/24

Dimensions: 6000 x 150 ft. / 1829 x 46 m
Surface: turf
RUNWAY 6  RUNWAY 24
Traffic pattern: leftleft

Runway 18/36

Dimensions: 6000 x 200 ft. / 1829 x 61 m
Surface: turf
RUNWAY 18  RUNWAY 36
Traffic pattern: leftleft

Airport Ownership and Management from official FAA records

Ownership: Publicly-owned
Owner: RESOURCE MANAGEMENT SERVICE, LLC
2704-C EXCHANGE DRIVE
WILMINGTON, NC 28405
Manager: ROBERT EVANS
2704-C EXCHANGE DRIVE
WHITEVILLE, NC 28405
Phone 910-777-4931

Additional Remarks

FACILITY USED BY NC FOREST SVC FOR FIRE CONTROL.
NOT MAINTAINED DURING OFF SEASON; USE NOT RECOMMENDED DURING FIRE SEASON.
FOR CD CTC WASHINGTON ARTCC AT 703-771-3587.

Instrument Procedures

There are no published instrument procedures at NC43.

Some nearby airports with instrument procedures:

KSUT - Cape Fear Regional Jetport/Howie Franklin Field Airport (18 nm SE)
KCPC - Columbus County Municipal Airport (21 nm NW)
KILM - Wilmington International Airport (23 nm E)
5J9 - Twin City Airport (26 nm W)
KCRE - Grand Strand Airport (27 nm SW)
 
Loc | Ops | Rwys | IFR | FBO | Links
Com | Nav | Svcs | Stats | Notes
Area around NC43 (Bear Pen Airport)
 
Road maps at: MapQuest Bing Google
 
Aerial photo
No photo
 
Sectional chart

 
Airport distance calculator
Flying to Bear Pen Airport? Find the distance to fly.

From to NC43

Sunrise and sunset
Times for 28-Nov-2022
 Local
(UTC-5)
 Zulu
(UTC)
Morning civil twilight06:3211:32
Sunrise06:5911:59
Sunset17:0322:03
Evening civil twilight17:3122:31

Current date and time
Zulu (UTC)  28-Nov-2022 07:16:24
Local (UTC-5)  28-Nov-2022 02:16:24
 
METAR
KSUT 
17nm SE 
280655Z AUTO 25006KT 10SM CLR 15/11 A2981 RMK AO2 T01490108
KCPC 
21nm NW 
280655Z AUTO 24005KT 10SM CLR 16/08 A2981 RMK AO2 T01560080
KILM 
23nm E 
280653Z AUTO 24010KT 10SM CLR 17/09 A2978 RMK AO2 SLP084 T01670089 $
KCRE 
26nm SW 
280653Z AUTO 25007KT 10SM CLR 16/08 A2981 RMK AO1 SLP094 T01610083
KEYF 
31nm NW 
280655Z AUTO 25007KT 10SM CLR 15/08 A2978 RMK AO2 T01550083
TAF
KILM 
23nm E 
280520Z 2806/2906 25010KT P6SM SKC FM281500 27012G17KT P6SM SKC FM281800 28011G20KT P6SM SCT040
KCRE 
26nm SW 
280520Z 2806/2906 26008KT P6SM SKC FM281600 27013G20KT P6SM SKC FM282200 29008KT P6SM SKC
NOTAMs
Click for the latest NOTAMs
NOTAMs are issued by the DoD/FAA and will open in a separate window not controlled by AirNav.

 

 
 

Would you like to see your business listed on this page?

 If your business provides an interesting product or service to pilots, flight crews, aircraft, or users of the Bear Pen Airport, you should consider listing it here.  To start the listing process, click on the button below
 
Add a business
 

Other Pages about Bear Pen Airport

Update a link
 
Copyright © AirNav, LLC. All rights reserved. Privacy Policy  Contact